Kronborg, Nebraska
Current Conditions -  °F | °C
As of 11:15 PM on Thursday 30 Oct 2014 (Local Time) from KAUH Reporting Station
Scattered Clouds Scattered Clouds  
Wind Chill: 32°   Ceiling: Unl
Heat Index: 40°   Visibility: 10mi
Dew Point: 32°   Wind: 15mph
Humidity: 73%   Direction: 10°N
Pressure: 30.4"   Gusts: 21mph
Location:  41.0075°N, 98.0042°W
Report Text: KAUH 310415Z AUTO 01013G18KT 10SM SCT019 05/00 A3040 RMK AO2 T00460002
Loading
Personal Weather Stations






























Interactive Weather Map New forecast layout! Learn more

10-Day Weather Forecast

Advertisements
Track Severe Weather on mobile